createdAt,value
2023-04-25T00:00:49.625Z,100162.50
2023-04-25T00:05:53.237Z,100187.94
2023-04-25T00:10:55.998Z,100164.09
2023-04-25T00:15:59.555Z,100191.00
2023-04-25T00:21:02.469Z,100193.31
2023-04-25T00:26:05.550Z,100206.81
2023-04-25T00:31:08.633Z,100215.00
2023-04-25T00:36:11.441Z,100218.31
2023-04-25T00:41:14.290Z,100234.00
2023-04-25T00:46:17.137Z,100221.81
2023-04-25T00:51:22.318Z,100247.00
2023-04-25T00:56:25.134Z,100239.66
2023-04-25T01:01:28.122Z,100262.78
2023-04-25T01:06:32.385Z,100255.31
2023-04-25T01:11:35.662Z,100265.06
2023-04-25T01:16:38.912Z,100287.50
2023-04-25T01:21:42.031Z,100283.78
2023-04-25T01:26:51.176Z,100294.00
2023-04-25T01:32:00.031Z,100303.78
2023-04-25T01:37:05.676Z,100303.41
2023-04-25T01:42:08.822Z,100328.44
2023-04-25T01:47:12.539Z,100333.88
2023-04-25T01:52:15.469Z,100328.50
2023-04-25T01:57:18.470Z,100342.25
2023-04-25T02:02:21.742Z,100345.91
2023-04-25T02:07:24.659Z,100361.59
2023-04-25T02:12:30.185Z,100352.13
2023-04-25T02:17:55.521Z,100375.06
2023-04-25T02:22:58.366Z,100399.41
2023-04-25T02:28:01.355Z,100399.50
2023-04-25T02:33:05.659Z,100388.63
2023-04-25T02:38:08.667Z,100406.22
2023-04-25T02:43:12.612Z,100397.22
2023-04-25T02:48:15.469Z,100410.25
2023-04-25T02:53:18.316Z,100437.31
2023-04-25T02:58:25.511Z,100439.97
2023-04-25T03:03:29.883Z,100439.63
2023-04-25T03:08:33.897Z,100442.66
2023-04-25T03:13:37.753Z,100460.13
2023-04-25T03:18:41.378Z,100450.38
2023-04-25T03:23:44.193Z,100444.88
2023-04-25T03:28:46.995Z,100456.03
2023-04-25T03:33:50.356Z,100451.06
2023-04-25T03:38:56.531Z,100473.88
2023-04-25T03:44:00.009Z,100471.16
2023-04-25T03:49:03.600Z,100462.72
2023-04-25T03:54:26.408Z,100471.91
2023-04-25T03:59:39.487Z,100495.31
2023-04-25T04:04:45.711Z,100500.25
2023-04-25T04:09:49.523Z,100492.75
2023-04-25T04:15:00.732Z,100493.13
2023-04-25T04:20:05.106Z,100483.06
2023-04-25T04:25:09.694Z,100505.09
2023-04-25T04:30:32.841Z,100507.47
2023-04-25T04:35:38.550Z,100500.69
2023-04-25T04:40:43.114Z,100514.88
2023-04-25T04:45:57.588Z,100512.41
2023-04-25T04:51:20.557Z,100532.47
2023-04-25T04:56:38.661Z,100535.88
2023-04-25T05:02:00.200Z,100532.00
2023-04-25T05:07:19.715Z,100533.25
2023-04-25T05:12:37.346Z,100527.34
2023-04-25T05:17:43.498Z,100535.00
2023-04-25T05:23:15.067Z,100551.75
2023-04-25T05:28:38.550Z,100535.81
2023-04-25T05:34:08.464Z,100536.66
2023-04-25T05:39:27.660Z,100542.13
2023-04-25T05:44:53.189Z,100544.34
2023-04-25T05:50:34.525Z,100569.03
2023-04-25T05:55:41.125Z,100580.25
2023-04-25T06:01:01.684Z,100554.56
2023-04-25T06:06:04.978Z,100557.16
2023-04-25T06:11:08.176Z,100557.97
2023-04-25T06:16:11.602Z,100566.16
2023-04-25T06:21:14.505Z,100555.50
2023-04-25T06:26:17.457Z,100570.28
2023-04-25T06:31:22.353Z,100609.88
2023-04-25T06:36:28.998Z,100626.56
2023-04-25T06:41:38.591Z,100622.78
2023-04-25T06:46:43.997Z,100603.09
2023-04-25T06:51:49.885Z,100598.66
2023-04-25T06:56:52.643Z,100585.47
2023-04-25T07:01:55.664Z,100585.41
2023-04-25T07:07:04.038Z,100574.78
2023-04-25T07:12:19.076Z,100575.28
2023-04-25T07:17:21.929Z,100585.81
2023-04-25T07:22:25.738Z,100564.03
2023-04-25T07:27:29.265Z,100606.78
2023-04-25T07:32:38.325Z,100598.38
2023-04-25T07:37:41.216Z,100604.63
2023-04-25T07:42:50.194Z,100608.56
2023-04-25T07:47:59.081Z,100608.66
2023-04-25T07:53:02.392Z,100620.16
2023-04-25T07:58:11.435Z,100623.06
2023-04-25T08:03:17.507Z,100635.44
2023-04-25T08:08:21.214Z,100653.09
2023-04-25T08:13:24.568Z,100671.69
2023-04-25T08:18:28.968Z,100660.16
2023-04-25T08:23:32.201Z,100681.94
2023-04-25T08:28:40.874Z,100697.34
2023-04-25T08:33:43.926Z,100674.75
2023-04-25T08:39:08.420Z,100656.91
2023-04-25T08:44:19.349Z,100654.00
2023-04-25T08:49:22.675Z,100639.81
2023-04-25T08:59:55.950Z,100657.06
2023-04-25T09:05:00.160Z,100681.78
2023-04-25T09:10:04.746Z,100695.84
2023-04-25T09:10:28.994Z,100637.31
2023-04-25T09:15:20.483Z,100691.88
2023-04-25T09:21:14.888Z,100671.38
2023-04-25T09:26:22.870Z,100682.22
2023-04-25T09:31:26.953Z,100683.16
2023-04-25T09:36:36.764Z,100690.94
2023-04-25T09:41:58.443Z,100674.75
2023-04-25T09:47:02.028Z,100682.25
2023-04-25T09:52:06.591Z,100672.69
2023-04-25T09:57:25.968Z,100678.25
2023-04-25T10:02:32.903Z,100703.47
2023-04-25T10:07:42.537Z,100703.00
2023-04-25T10:12:50.874Z,100734.00
2023-04-25T10:17:54.901Z,100707.09
2023-04-25T10:23:01.300Z,100708.44
2023-04-25T10:28:05.554Z,100699.88
2023-04-25T10:33:19.223Z,100706.28
2023-04-25T10:38:22.230Z,100705.03
2023-04-25T10:43:48.032Z,100684.13
2023-04-25T10:48:57.816Z,100694.31
2023-04-25T10:54:10.310Z,100667.75
2023-04-25T10:59:15.200Z,100692.75
2023-04-25T11:04:25.248Z,100688.25
2023-04-25T11:09:29.593Z,100700.19
2023-04-25T11:14:33.175Z,100693.09
2023-04-25T11:19:36.410Z,100702.53
2023-04-25T11:24:39.600Z,100694.38
2023-04-25T11:29:43.005Z,100689.28
2023-04-25T11:34:49.235Z,100694.94
2023-04-25T11:39:53.301Z,100685.75
2023-04-25T11:44:56.327Z,100681.00
2023-04-25T11:50:04.462Z,100681.16
2023-04-25T11:55:18.196Z,100677.41
2023-04-25T12:00:22.739Z,100683.19
2023-04-25T12:05:32.704Z,100677.19
2023-04-25T12:10:42.112Z,100662.16
2023-04-25T12:15:45.294Z,100660.44
2023-04-25T12:21:05.751Z,100654.38
2023-04-25T12:26:23.386Z,100666.59
2023-04-25T12:31:27.089Z,100667.31
2023-04-25T12:36:33.183Z,100663.16
2023-04-25T12:41:48.104Z,100671.00
2023-04-25T12:46:51.607Z,100669.69
2023-04-25T12:51:54.489Z,100663.41
2023-04-25T12:56:57.869Z,100664.34
2023-04-25T13:02:01.189Z,100663.38
2023-04-25T13:07:07.176Z,100670.06
2023-04-25T13:12:10.149Z,100663.97
2023-04-25T13:17:12.944Z,100675.63
2023-04-25T13:22:18.172Z,100672.97
2023-04-25T13:27:20.814Z,100669.72
2023-04-25T13:32:23.778Z,100669.38
2023-04-25T13:37:26.645Z,100648.91
2023-04-25T13:42:34.866Z,100663.13
2023-04-25T13:47:40.832Z,100667.09
2023-04-25T13:52:43.728Z,100661.34
2023-04-25T13:57:47.100Z,100662.44
2023-04-25T14:02:50.857Z,100657.13
2023-04-25T14:07:53.852Z,100658.47
2023-04-25T14:12:57.131Z,100656.16
2023-04-25T14:18:03.136Z,100652.59
2023-04-25T14:23:08.834Z,100653.66
2023-04-25T14:28:12.144Z,100655.34
2023-04-25T14:33:17.417Z,100650.88
2023-04-25T14:38:24.513Z,100654.66
2023-04-25T14:43:27.272Z,100643.25
2023-04-25T14:48:30.932Z,100658.66
2023-04-25T14:53:36.986Z,100659.13
2023-04-25T14:58:41.544Z,100648.56
2023-04-25T15:03:44.865Z,100640.72
2023-04-25T15:08:47.736Z,100646.31
2023-04-25T15:13:51.532Z,100645.66
2023-04-25T15:18:54.536Z,100649.63
2023-04-25T15:23:57.867Z,100648.97
2023-04-25T15:29:00.611Z,100640.63
2023-04-25T15:34:03.746Z,100644.69
2023-04-25T15:39:06.464Z,100639.66
2023-04-25T15:44:11.280Z,100625.91
2023-04-25T15:49:14.184Z,100630.25
2023-04-25T15:54:17.628Z,100629.00
2023-04-25T15:59:20.552Z,100627.25
2023-04-25T16:04:40.170Z,100634.13
2023-04-25T16:09:43.138Z,100631.13
2023-04-25T16:14:45.964Z,100628.81
2023-04-25T16:19:50.683Z,100625.78
2023-04-25T16:24:53.489Z,100624.34
2023-04-25T16:29:56.245Z,100619.31
2023-04-25T16:34:59.216Z,100620.19
2023-04-25T16:40:02.035Z,100613.59
2023-04-25T16:45:08.491Z,100607.31
2023-04-25T16:50:11.797Z,100611.00
2023-04-25T16:55:14.692Z,100597.56
2023-04-25T17:00:18.593Z,100593.88
2023-04-25T17:05:21.463Z,100595.41
2023-04-25T17:10:24.330Z,100592.41
2023-04-25T17:15:27.209Z,100591.50
2023-04-25T17:20:30.014Z,100579.31
2023-04-25T17:25:33.426Z,100598.13
2023-04-25T17:30:36.292Z,100587.09
2023-04-25T17:35:39.167Z,100589.50
2023-04-25T17:40:41.999Z,100590.00
2023-04-25T17:45:44.859Z,100586.44
2023-04-25T17:50:47.751Z,100577.41
2023-04-25T17:55:50.900Z,100581.31
2023-04-25T18:00:53.931Z,100574.34
2023-04-25T18:05:56.973Z,100572.81
2023-04-25T18:10:59.796Z,100581.06
2023-04-25T18:16:02.565Z,100579.78
2023-04-25T18:21:07.998Z,100566.81
2023-04-25T18:26:11.147Z,100575.72
2023-04-25T18:31:16.363Z,100574.13
2023-04-25T18:36:19.300Z,100567.75
2023-04-25T18:46:38.093Z,100567.91
2023-04-25T18:51:41.943Z,100564.66
2023-04-25T18:56:44.713Z,100567.84
2023-04-25T19:01:47.871Z,100559.97
2023-04-25T19:06:51.615Z,100563.41
2023-04-25T19:11:54.529Z,100566.97
2023-04-25T19:16:59.585Z,100570.97
2023-04-25T19:22:02.334Z,100570.84
2023-04-25T19:27:05.071Z,100573.38
2023-04-25T19:32:07.901Z,100560.91
2023-04-25T19:37:10.797Z,100568.22
2023-04-25T19:42:13.535Z,100565.81
2023-04-25T19:47:16.338Z,100566.09
2023-04-25T19:52:19.433Z,100567.06
2023-04-25T19:57:22.793Z,100566.97
2023-04-25T20:02:26.801Z,100571.41
2023-04-25T20:07:30.121Z,100560.47
2023-04-25T20:12:33.662Z,100566.97
2023-04-25T20:17:37.382Z,100567.53
2023-04-25T20:22:40.933Z,100564.66
2023-04-25T20:27:43.798Z,100567.84
2023-04-25T20:32:46.614Z,100565.44
2023-04-25T20:37:51.318Z,100560.28
2023-04-25T20:42:54.485Z,100549.16
2023-04-25T20:47:57.309Z,100551.88
2023-04-25T20:53:00.189Z,100549.25
2023-04-25T20:58:03.662Z,100556.81
2023-04-25T21:03:08.224Z,100554.91
2023-04-25T21:08:11.094Z,100557.91
2023-04-25T21:13:14.173Z,100543.06
2023-04-25T21:18:17.092Z,100543.06
2023-04-25T21:23:19.994Z,100545.03
2023-04-25T21:28:23.751Z,100537.84
2023-04-25T21:33:26.515Z,100549.28
2023-04-25T21:38:29.439Z,100552.56
2023-04-25T21:43:32.918Z,100553.41
2023-04-25T21:48:35.640Z,100557.38
2023-04-25T21:53:38.432Z,100560.75
2023-04-25T21:58:41.239Z,100561.91
2023-04-25T22:03:44.164Z,100571.22
2023-04-25T22:08:47.174Z,100576.22
2023-04-25T22:13:50.196Z,100568.59
2023-04-25T22:18:53.730Z,100574.47
2023-04-25T22:24:00.550Z,100569.22
2023-04-25T22:29:04.136Z,100571.88
2023-04-25T22:34:07.175Z,100569.66
2023-04-25T22:39:10.420Z,100570.50
2023-04-25T22:44:13.310Z,100570.94
2023-04-25T22:49:16.192Z,100563.41
2023-04-25T22:54:19.451Z,100570.06
2023-04-25T22:59:22.384Z,100562.38
2023-04-25T23:04:25.813Z,100577.69
2023-04-25T23:09:28.645Z,100572.44
2023-04-25T23:14:31.619Z,100570.28
2023-04-25T23:19:34.724Z,100580.22
2023-04-25T23:24:40.937Z,100585.97
2023-04-25T23:29:43.815Z,100583.38
2023-04-25T23:34:46.774Z,100578.09
2023-04-25T23:39:52.860Z,100581.41
2023-04-25T23:44:55.732Z,100580.72
2023-04-25T23:50:02.008Z,100587.16
2023-04-25T23:55:07.060Z,100573.88
